Flight Track Log - Related Links

Times and Time Zones

All times are in EDT time to prevent confusion due to time zone crossing. See the FLG4322 flight status page for this flight to view local times or setup timezone preferences in your user account.

Time Position Orientation Groundspeed Altitude Reporting Facility
EDT Latitude Longitude Course Direction KTS MPH feet Rate Location/Type
Fri 01:23:29 PM 38.7564 -90.3561 184° South 165 190 1,300  Level FAA TRACON
Fri 01:23:48 PM 38.7667 -90.3744 306° West 164 189 2,500 2,615 Climbing FAA TRACON
Fri 01:24:08 PM 38.7753 -90.3925 301° West 184 212 3,000 1,650 Climbing FAA TRACON
Fri 01:24:28 PM 38.7750 -90.4156 269° West 219 252 3,600 2,927 Climbing FAA TRACON
Fri 01:24:49 PM 38.7561 -90.4367 221° Southwest 245 282 5,000 3,150 Climbing FAA TRACON
Fri 01:25:08 PM 38.7356 -90.4475 202° Southwest 257 296 5,700 1,385 Climbing FAA TRACON
Fri 01:25:28 PM 38.7147 -90.4581 202° Southwest 260 299 5,900 450 Climbing FAA TRACON
Fri 01:25:48 PM 38.6883 -90.4714 202° Southwest 264 304 6,000 1,650 Climbing FAA TRACON
Fri 01:26:00 PM 38.7127 -90.4892 184° South  Level FlightAware
Fri 01:26:08 PM 38.6672 -90.4825 202° Southwest 266 306 7,000  Level FAA TRACON
Fri 01:26:28 PM 38.6406 -90.4950 200° South 267 307 8,100 2,850 Climbing FAA TRACON
Fri 01:26:48 PM 38.6164 -90.4981 186° South 282 325 8,900 2,400 Climbing FAA TRACON
Fri 01:27:00 PM 38.6197 -90.4970 184° South  Level FlightAware
Fri 01:27:08 PM 38.5908 -90.4986 181° South 291 335 9,700  Level FAA TRACON
Fri 01:27:28 PM 38.5594 -90.4994 181° South 294 338 10,600 2,100 Climbing FAA TRACON
Fri 01:27:48 PM 38.5336 -90.4989 179° South 301 346 11,100 1,500 Climbing FAA TRACON
Fri 01:28:00 PM 38.5267 -90.5057 184° South  Level FlightAware
Fri 01:28:08 PM 38.5058 -90.4997 181° South 314 361 11,600  Level FAA TRACON
Fri 01:28:28 PM 38.4706 -90.5003 181° South 330 380 12,100 1,500 Climbing FAA TRACON
Fri 01:28:48 PM 38.4411 -90.5003 180° South 340 391 12,600 1,500 Climbing FAA TRACON
Fri 01:29:08 PM 38.4108 -90.5006 180° South 349 402 13,100 1,650 Climbing FAA TRACON
Fri 01:29:28 PM 38.3728 -90.5008 180° South 355 409 13,700 1,500 Climbing FAA TRACON
Fri 01:29:48 PM 38.3414 -90.5003 179° South 362 417 14,100 1,475 Climbing FAA TRACON
Fri 01:30:29 PM 38.2700 -90.5022 181° South 372 428 15,200 1,525 Climbing FAA TRACON
Fri 01:30:47 PM 38.2375 -90.5006 178° South 377 434 15,600 1,421 Climbing FAA TRACON
Fri 01:31:07 PM 38.2053 -90.5022 182° South 377 434 16,100 1,610 Climbing FAA TRACON
Fri 01:31:28 PM 38.1644 -90.5033 181° South 380 437 16,700 1,500 Climbing FAA TRACON
Fri 01:31:47 PM 38.1322 -90.5100 189° South 381 438 17,100 1,385 Climbing FAA TRACON
Fri 01:32:07 PM 38.1000 -90.5136 185° South 381 438 17,600 1,800 Climbing FAA TRACON
Fri 01:32:27 PM 38.0586 -90.5175 184° South 383 441 18,300 1,650 Climbing FAA TRACON
Fri 01:32:47 PM 38.0258 -90.5203 184° South 385 443 18,700 1,317 Climbing FAA TRACON
Fri 01:33:08 PM 37.9933 -90.5253 187° South 383 441 19,200 1,610 Climbing FAA TRACON
Fri 01:33:28 PM 37.9519 -90.5289 184° South 384 442 19,800 1,500 Climbing FAA TRACON
Fri 01:33:48 PM 37.9192 -90.5317 184° South 384 442 20,200 1,317 Climbing FAA TRACON
Fri 01:34:09 PM 37.8864 -90.5342 183° South 384 442 20,700 1,610 Climbing FAA TRACON
Fri 01:34:29 PM 37.8467 -90.5431 190° South 380 437 21,300 1,538 Climbing FAA TRACON
Fri 01:34:48 PM 37.8139 -90.5428 180° South 377 434 21,700 1,322 Climbing FAA TRACON
Fri 01:35:28 PM 37.7581 -90.5508 187° South 374 430 22,600 1,268 Climbing FAA TRACON
Fri 01:35:59 PM 37.7125 -90.6083 225° Southwest 377 434 23,200 1,032 Climbing Kansas Center
Fri 01:37:01 PM 37.6092 -90.6208 185° South 374 430 24,200 1,056 Climbing Kansas Center
Fri 01:38:04 PM 37.4839 -90.6347 185° South 375 432 25,400 864 Climbing Kansas Center
Fri 01:39:06 PM 37.3797 -90.6444 184° South 376 433 26,000 288 Climbing Kansas Center
Fri 01:40:09 PM 37.2758 -90.6553 185° South 376 433 26,000  Level Kansas Center
Fri 01:41:05 PM 37.1628 -90.6797 190° South 408 470 26,000  Level Memphis Center
Fri 01:42:05 PM 37.0544 -90.7078 192° South 408 470 26,000  Level Memphis Center
Fri 01:43:05 PM 36.9439 -90.7383 192° South 408 470 26,000  Level Memphis Center
Fri 01:44:05 PM 36.8333 -90.7664 191° South 413 475 26,000  Level Memphis Center
Fri 01:45:05 PM 36.7206 -90.7944 191° South 413 475 26,000  Level Memphis Center
Fri 01:46:05 PM 36.6100 -90.8247 192° South 413 475 26,000  Level Memphis Center
Fri 01:47:05 PM 36.4975 -90.8553 192° South 413 475 26,000  Level Memphis Center
Fri 01:48:05 PM 36.3869 -90.8828 191° South 413 475 26,000  Level Memphis Center
Fri 01:49:05 PM 36.2783 -90.9131 193° South 413 475 26,000  Level Memphis Center
Fri 01:50:05 PM 36.1678 -90.9406 191° South 413 475 26,000 -1,500 Level Memphis Center
Fri 01:51:05 PM 36.0633 -90.9450 182° South 399 459 23,000 -2,450 Descending Memphis Center
Fri 01:52:05 PM 35.9592 -90.9186 168° South 383 441 21,100 -2,000 Descending Memphis Center
Fri 01:53:05 PM 35.8553 -90.8922 168° South 383 441 19,000 -1,950 Descending Memphis Center
Fri 01:54:05 PM 35.7594 -90.8661 168° South 383 441 17,200 -1,750 Descending Memphis Center
Fri 01:55:05 PM 35.6656 -90.8425 168° South 362 417 15,500 -1,800 Descending Memphis Center
Fri 01:56:05 PM 35.5697 -90.8164 168° South 351 404 13,600 -1,850 Descending Memphis Center
Fri 01:57:05 PM 35.4739 -90.7828 164° South 351 404 11,800 -1,750 Descending Memphis Center
Fri 01:58:05 PM 35.4222 -90.6731 120° Southeast 344 396 10,100 -900 Descending Memphis Center
Fri 01:59:05 PM 35.3786 -90.5608 115° Southeast 358 412 10,000 -100 Descending Memphis Center
Fri 02:00:05 PM 35.3286 -90.4539 120° Southeast 358 412 9,900  Descending Memphis Center
Fri 02:01:05 PM 35.2703 -90.3622 128° Southeast 334 384 10,000 -200 Climbing Memphis Center
Fri 02:02:05 PM 35.2158 -90.2833 130° Southeast 310 357 9,500 -450 Descending Memphis Center
Fri 02:03:05 PM 35.1658 -90.2097 130° Southeast 293 337 9,100 -200 Descending Memphis Center
Fri 02:04:05 PM 35.1178 -90.1389 130° Southeast 281 323 9,100 -650 Level Memphis Center
Fri 02:05:05 PM 35.0572 -90.1111 159° South 227 261 7,800 -1,308 Descending Memphis Center
Fri 02:05:23 PM 35.0333 -90.1167 191° South 228 262 7,400 -1,425 Descending KMEM
Fri 02:06:25 PM 34.9667 -90.1000 168° South 240 276 5,900 -1,550 Descending KMEM
Fri 02:07:23 PM 34.9000 -90.1000 180° South 220 253 4,300 -966 Descending KMEM
Fri 02:08:23 PM 34.8500 -90.1000 180° South 217 250 4,000 -471 Descending KMEM
Fri 02:09:05 PM 34.8297 -90.0636 124° Southeast 198 228 3,500 -647 Descending Memphis Center
Fri 02:10:05 PM 34.8669 -89.9978 55° Northeast 172 198 2,900 -357 Descending Memphis Center
Fri 02:10:29 PM 34.8833 -89.9833 36° Northeast 197 227 3,000 250 Climbing KMEM

Login

Don't have an account? Register now (free) for customized features, flight alerts, and more!